McFarland, CA (93250)

12:54 PM PDT on August 28, 2015 (GMT -0700)
APRSWXNET | | Change Station
CLOSE
Current Station
Personal Weather Station
Location: Earlimart, CA
Elevation: 213 ft
Nearby Weather Stations

Elev 213 ft 35.86 °N, 119.39 °W | Updated 16 minutes ago

Clear
Clear
97 °F
Feels Like 95 °F
N
4
Wind Variable Wind from ENE
Gusts 7.0 mph

Today
High -- | Low -- °F
--% Chance of Precip.
Yesterday
High -- | Low -- °F
Precip. -- in
6:25 AM 7:29 PM
Waxing Gibbous, 99% visible
Pressure 29.88 in
Visibility 10.0 miles
Clouds Clear
Heat Index 95 °F
Dew Point 54 °F
Humidity 24%
Rainfall in
Snow Depth Not available.
UV 10 out of 12
Pollen 8.10 out of 12
Air Quality Not available.
Flu Activity Not available.
METAR KBFL 281854Z VRB04KT 10SM CLR 34/07 A2990 RMK AO2 SLP117 T03440072
Pressure 29.88 in
Visibility 10.0 miles
Clouds Clear
Heat Index 95 °F
Dew Point 54 °F
Humidity 24%
Rainfall in
Snow Depth Not available.
UV 10 out of 12
Pollen 8.10 out of 12
Air Quality Not available.
Flu Activity Not available.
METAR KBFL 281854Z VRB04KT 10SM CLR 34/07 A2990 RMK AO2 SLP117 T03440072

10-Day Weather Forecast

×

Almanac

Astronomy

Aug. 28, 2015 Rise Set
Actual Time
Civil Twilight
Nautical Twilight
Astronomical Twilight
Moon
Length of Visible Light
Length of Day
Tomorrow will be .
, % of the Moon is Illuminated

Today's Extremes

State Highs State Lows

Community

WunderPhotos

Upload Photos

1,850,466 photos uploaded!

WunderBlogs® & News

Nearby

Air Quality

  Air Quality AQ Index Pollutant
Not available.

Snow Depth

Station Depth Elevation

Earthquake Activity

City Distance Mag. Time & Date
Minimum magnitude displayed is 2.5.

Coastal Water Temperatures

Place Temperature

Stations

Nearby Weather Stations

Station Location Temp. Windchill Dew Point Humidity Wind Precip. Elev Updated Type